Time;durP1;ratioP1;P1;durP2;ratioP2;P2;SDS_P1;SDS_P2;PMS_P1;PMS_P2;Temp;Humidity;BMP_temperature;BMP_pressure;BME280_temperature;BME280_humidity;BME280_pressure;Samples;Min_cycle;Max_cycle;Signal;HPM_P1;HPM_P2
2022/05/23 00:02:07;;;;;;;2.40;2.00;;;25.70;44.80;;;;;;4985843;28;20445;-47
2022/05/23 00:04:33;;;;;;;2.43;2.23;;;25.70;44.60;;;;;;4984680;28;20941;-45
2022/05/23 00:06:59;;;;;;;3.97;2.50;;;25.80;44.50;;;;;;4982532;28;20460;-45
2022/05/23 00:09:25;;;;;;;3.60;2.23;;;25.70;44.10;;;;;;4988612;28;20807;-46
2022/05/23 00:11:51;;;;;;;2.60;2.40;;;25.70;44.20;;;;;;4990563;28;20545;-45
2022/05/23 00:14:17;;;;;;;2.53;2.33;;;25.70;43.80;;;;;;4989275;28;20521;-46
2022/05/23 00:16:46;;;;;;;3.40;2.23;;;25.80;43.90;;;;;;4988848;28;20318;-46
2022/05/23 00:19:13;;;;;;;3.97;2.63;;;25.80;43.90;;;;;;4989913;28;20198;-45
2022/05/23 00:21:41;;;;;;;3.33;2.80;;;25.70;43.90;;;;;;5003283;28;20445;-50
2022/05/23 00:24:07;;;;;;;3.07;2.20;;;25.80;43.80;;;;;;4987886;28;20446;-47
2022/05/23 00:26:33;;;;;;;2.50;2.23;;;25.80;43.70;;;;;;4987366;28;20536;-46
2022/05/23 00:28:59;;;;;;;2.20;1.90;;;25.70;43.50;;;;;;4987745;28;20540;-46
2022/05/23 00:31:24;;;;;;;4.10;2.13;;;25.70;43.50;;;;;;4987799;28;20202;-45
2022/05/23 00:36:34;;;;;;;3.63;2.20;;;25.40;43.80;;;;;;4990219;28;20245;-47
2022/05/23 00:39:01;;;;;;;2.20;2.00;;;25.10;44.10;;;;;;4985130;28;20528;-45
2022/05/23 00:44:30;;;;;;;2.57;2.37;;;25.10;44.70;;;;;;4988149;28;20452;-45
2022/05/23 00:46:59;;;;;;;2.63;2.43;;;25.20;44.50;;;;;;4989071;28;20540;-45
2022/05/23 00:49:30;;;;;;;2.30;2.10;;;25.30;44.50;;;;;;4983505;28;20446;-48
2022/05/23 00:51:59;;;;;;;2.40;2.20;;;25.40;44.20;;;;;;4986060;28;20437;-46
2022/05/23 00:54:31;;;;;;;3.00;2.53;;;25.40;43.90;;;;;;4980219;28;20565;-45
2022/05/23 00:56:57;;;;;;;2.60;2.40;;;25.50;44.00;;;;;;4984031;28;20523;-45
2022/05/23 00:59:29;;;;;;;2.77;2.53;;;25.50;43.90;;;;;;4979406;28;22447;-45
2022/05/23 01:01:55;;;;;;;4.80;2.97;;;25.60;43.80;;;;;;4999677;28;20186;-46
2022/05/23 01:04:21;;;;;;;2.70;2.50;;;25.60;43.80;;;;;;4984010;28;20849;-48
2022/05/23 01:06:46;;;;;;;2.77;2.40;;;25.60;43.70;;;;;;4985899;28;20206;-49
2022/05/23 01:09:12;;;;;;;3.13;2.93;;;25.60;43.70;;;;;;4990734;28;20233;-45
2022/05/23 01:11:38;;;;;;;5.13;2.37;;;25.60;43.80;;;;;;4987389;28;20202;-45
2022/05/23 01:14:05;;;;;;;3.47;2.37;;;25.60;43.70;;;;;;4989234;28;20198;-49
2022/05/23 01:16:31;;;;;;;3.23;3.03;;;25.60;43.80;;;;;;4986614;28;20222;-49
2022/05/23 01:18:57;;;;;;;2.80;2.30;;;25.60;43.80;;;;;;4985194;28;20512;-47
2022/05/23 01:21:53;;;;;;;2.60;2.40;;;25.60;43.70;;;;;;4978958;28;20199;-45
2022/05/23 01:24:32;;;;;;;2.73;2.53;;;25.60;43.70;;;;;;4989359;28;20198;-46
2022/05/23 01:26:59;;;;;;;2.67;2.47;;;25.70;43.60;;;;;;4987972;28;20821;-49
2022/05/23 01:29:24;;;;;;;2.70;2.50;;;25.60;43.60;;;;;;4988375;28;20826;-44
2022/05/23 01:31:50;;;;;;;2.57;2.27;;;25.70;43.50;;;;;;4986053;28;20453;-46
2022/05/23 01:34:15;;;;;;;2.50;2.30;;;25.60;44.00;;;;;;4981184;28;20242;-48
2022/05/23 01:36:41;;;;;;;2.63;2.43;;;25.60;43.50;;;;;;4984439;28;20223;-45
2022/05/23 01:39:06;;;;;;;3.97;2.60;;;25.60;43.50;;;;;;4989124;28;20226;-47
2022/05/23 01:41:32;;;;;;;2.70;2.50;;;25.60;43.50;;;;;;4987582;28;20211;-45
2022/05/23 01:43:58;;;;;;;3.00;2.80;;;25.60;43.50;;;;;;4984849;28;20646;-46
2022/05/23 01:46:23;;;;;;;5.23;2.80;;;25.60;43.50;;;;;;4978455;28;21616;-45
2022/05/23 01:48:49;;;;;;;2.50;2.30;;;25.60;43.50;;;;;;4985715;28;20198;-45
2022/05/23 01:51:15;;;;;;;4.30;2.40;;;25.50;43.60;;;;;;4984459;28;20201;-47
2022/05/23 01:53:41;;;;;;;2.80;2.20;;;25.50;43.70;;;;;;4979474;28;20198;-45
2022/05/23 01:56:08;;;;;;;2.63;2.43;;;25.40;43.80;;;;;;4983840;28;20195;-46
2022/05/23 02:01:18;;;;;;;2.60;2.40;;;25.50;43.80;;;;;;4983495;28;20819;-47
2022/05/23 02:03:46;;;;;;;3.93;2.43;;;25.40;43.80;;;;;;4987684;28;20446;-48
2022/05/23 02:06:12;;;;;;;2.53;2.23;;;25.50;43.70;;;;;;4987681;28;20442;-45
2022/05/23 02:08:38;;;;;;;3.07;2.47;;;25.50;43.70;;;;;;4988310;28;21207;-45
2022/05/23 02:11:06;;;;;;;2.40;2.20;;;25.50;43.70;;;;;;4988790;28;20442;-46
2022/05/23 02:13:36;;;;;;;2.50;2.37;;;25.50;43.80;;;;;;4982268;28;22007;-44
2022/05/23 02:16:03;;;;;;;2.83;2.63;;;25.50;43.80;;;;;;4981979;28;21225;-46
2022/05/23 02:18:29;;;;;;;4.10;2.63;;;25.50;43.70;;;;;;4989496;28;20493;-46
2022/05/23 02:20:55;;;;;;;3.57;2.90;;;25.40;43.80;;;;;;4984289;28;20515;-45
2022/05/23 02:23:21;;;;;;;3.00;2.50;;;25.40;43.80;;;;;;4988475;28;20521;-44
2022/05/23 02:25:47;;;;;;;2.77;2.20;;;25.40;43.90;;;;;;4984772;28;20203;-45
2022/05/23 02:28:12;;;;;;;3.23;2.50;;;25.40;44.00;;;;;;4985255;28;20499;-45
2022/05/23 02:30:38;;;;;;;3.40;3.00;;;25.40;44.00;;;;;;4986737;28;20206;-44
2022/05/23 02:33:04;;;;;;;3.90;3.20;;;25.40;43.90;;;;;;4988065;28;20221;-45
2022/05/23 02:35:30;;;;;;;2.50;2.40;;;25.20;43.90;;;;;;4986749;28;20799;-44
2022/05/23 02:37:56;;;;;;;2.27;2.10;;;25.10;44.10;;;;;;4984181;28;20682;-45
2022/05/23 02:40:22;;;;;;;3.00;2.80;;;25.00;44.40;;;;;;4988322;28;20452;-45
2022/05/23 02:42:47;;;;;;;3.03;2.57;;;24.80;44.50;;;;;;4983194;28;20450;-46
2022/05/23 02:45:13;;;;;;;3.40;2.63;;;24.70;44.90;;;;;;4986936;28;20433;-45
2022/05/23 02:47:39;;;;;;;3.00;2.80;;;24.60;45.20;;;;;;4985723;28;20207;-44
2022/05/23 02:50:07;;;;;;;3.57;2.50;;;24.40;45.40;;;;;;4983398;28;20213;-45
2022/05/23 02:52:33;;;;;;;2.80;2.60;;;24.20;45.80;;;;;;4985777;28;20461;-45
2022/05/23 02:54:58;;;;;;;4.80;3.07;;;24.00;46.30;;;;;;4987415;28;20477;-44
2022/05/23 02:57:24;;;;;;;2.77;2.50;;;23.70;47.10;;;;;;4982680;28;20241;-44
2022/05/23 02:59:50;;;;;;;2.70;2.50;;;23.60;47.50;;;;;;4986959;28;20216;-46
2022/05/23 03:04:59;;;;;;;3.37;2.97;;;23.50;47.80;;;;;;4982798;28;20272;-45
2022/05/23 03:07:25;;;;;;;4.93;2.37;;;23.50;47.80;;;;;;4982981;28;20950;-45
2022/05/23 03:09:50;;;;;;;3.03;2.73;;;23.50;48.10;;;;;;4982195;28;20194;-45
2022/05/23 03:12:16;;;;;;;3.50;3.20;;;23.50;48.40;;;;;;4982792;28;20195;-44
2022/05/23 03:14:41;;;;;;;3.10;2.90;;;23.40;48.00;;;;;;4988096;28;20276;-47
2022/05/23 03:17:07;;;;;;;5.00;2.77;;;23.30;48.10;;;;;;4983685;28;20233;-45
2022/05/23 03:19:38;;;;;;;2.77;2.57;;;23.10;48.60;;;;;;4989899;28;20194;-45
2022/05/23 03:27:37;;;;;;;2.83;2.30;;;23.00;48.90;;;;;;4989394;28;20880;-45
2022/05/23 03:30:06;;;;;;;3.17;2.97;;;23.00;48.90;;;;;;4981134;28;20449;-45
2022/05/23 03:32:31;;;;;;;2.67;2.47;;;23.00;49.00;;;;;;4981787;28;20261;-46
2022/05/23 03:34:57;;;;;;;2.87;2.67;;;23.00;48.90;;;;;;4985871;28;20454;-48
2022/05/23 03:37:24;;;;;;;8.30;2.83;;;23.00;48.80;;;;;;4981421;28;20223;-47
2022/05/23 03:39:50;;;;;;;3.47;2.60;;;23.00;48.80;;;;;;4984249;28;20191;-46
2022/05/23 03:42:17;;;;;;;3.17;2.97;;;23.00;48.70;;;;;;4980787;28;20455;-45
2022/05/23 03:44:44;;;;;;;3.17;2.60;;;23.00;48.60;;;;;;4989825;28;20446;-49
2022/05/23 03:47:09;;;;;;;3.00;2.80;;;23.00;48.60;;;;;;4990715;28;20450;-44
2022/05/23 03:49:35;;;;;;;2.87;2.67;;;23.00;48.70;;;;;;4980920;28;20812;-45
2022/05/23 03:52:01;;;;;;;3.37;3.10;;;22.90;48.90;;;;;;4986186;28;20476;-44
2022/05/23 03:54:27;;;;;;;4.07;3.20;;;22.80;49.30;;;;;;4989832;28;20236;-48
2022/05/23 03:57:00;;;;;;;3.30;3.00;;;22.80;49.50;;;;;;4989846;28;20264;-46
2022/05/23 03:59:27;;;;;;;2.97;2.77;;;22.70;49.40;;;;;;4991731;28;20277;-48
2022/05/23 04:01:56;;;;;;;3.23;2.90;;;22.70;49.50;;;;;;4987462;28;20945;-45
2022/05/23 04:04:25;;;;;;;3.33;3.03;;;22.70;49.70;;;;;;4987855;28;20452;-49
2022/05/23 04:06:51;;;;;;;3.77;3.47;;;22.70;49.70;;;;;;4988434;28;20818;-44
2022/05/23 04:09:18;;;;;;;3.03;2.83;;;22.80;49.70;;;;;;4990325;28;20532;-45
2022/05/23 04:11:45;;;;;;;2.83;2.50;;;22.70;49.40;;;;;;4982469;28;20442;-47
2022/05/23 04:14:10;;;;;;;3.20;2.90;;;22.70;49.30;;;;;;4996642;28;20191;-44
2022/05/23 04:16:36;;;;;;;2.80;2.60;;;22.60;49.30;;;;;;4984239;28;21506;-42
2022/05/23 04:19:06;;;;;;;6.40;2.73;;;22.60;49.30;;;;;;4988587;28;20296;-44
2022/05/23 04:21:32;;;;;;;3.27;2.87;;;22.60;49.40;;;;;;4987455;28;20198;-45
2022/05/23 04:23:57;;;;;;;7.00;3.00;;;22.40;50.50;;;;;;4988941;28;21036;-44
2022/05/23 04:26:23;;;;;;;3.60;3.30;;;22.00;52.20;;;;;;4984048;28;20193;-47
2022/05/23 04:28:49;;;;;;;3.40;3.10;;;21.30;54.10;;;;;;4990770;28;20264;-43
2022/05/23 04:31:14;;;;;;;4.40;3.17;;;21.00;54.60;;;;;;4989131;28;20617;-44
2022/05/23 04:36:24;;;;;;;4.93;3.20;;;21.20;53.80;;;;;;4978414;28;20682;-44
2022/05/23 04:38:50;;;;;;;2.93;2.73;;;21.30;53.60;;;;;;4984228;28;20447;-43
2022/05/23 04:41:15;;;;;;;3.37;2.60;;;21.50;53.50;;;;;;4988967;28;20286;-43
2022/05/23 04:43:41;;;;;;;3.37;3.07;;;21.60;53.10;;;;;;4990118;28;20197;-47
2022/05/23 04:46:07;;;;;;;3.20;3.00;;;21.70;53.10;;;;;;4989030;28;20257;-43
2022/05/23 04:51:17;;;;;;;4.77;2.87;;;22.00;52.90;;;;;;4981116;28;20228;-47
2022/05/23 04:53:42;;;;;;;5.13;3.23;;;22.10;53.00;;;;;;4986839;28;20481;-43
2022/05/23 04:56:08;;;;;;;5.27;3.10;;;22.20;52.90;;;;;;4986808;28;20454;-44
2022/05/23 04:58:33;;;;;;;4.47;2.67;;;22.30;52.80;;;;;;4979214;28;20276;-44
2022/05/23 05:01:00;;;;;;;5.00;3.30;;;22.40;52.90;;;;;;4987365;28;20202;-43
2022/05/23 05:03:25;;;;;;;4.60;3.50;;;22.50;52.80;;;;;;4987892;28;20187;-44
2022/05/23 05:05:51;;;;;;;6.50;3.63;;;22.50;53.50;;;;;;4986211;28;21452;-44
2022/05/23 05:08:17;;;;;;;5.87;3.47;;;22.60;53.80;;;;;;4991008;28;20850;-43
2022/05/23 05:10:44;;;;;;;4.77;3.53;;;22.70;54.50;;;;;;4989365;28;20449;-43
2022/05/23 05:13:10;;;;;;;4.23;3.13;;;22.70;54.70;;;;;;4990285;28;20441;-47
2022/05/23 05:15:36;;;;;;;4.87;3.03;;;22.60;54.80;;;;;;4991908;28;20464;-43
2022/05/23 05:18:02;;;;;;;4.70;3.60;;;22.30;55.50;;;;;;4989436;28;20521;-45
2022/05/23 05:20:29;;;;;;;7.23;3.60;;;22.10;56.60;;;;;;4984129;28;21963;-43
2022/05/23 05:22:54;;;;;;;6.50;3.20;;;22.10;56.90;;;;;;4985305;28;20207;-43
2022/05/23 05:25:20;;;;;;;5.13;2.70;;;22.10;56.90;;;;;;4990748;28;20864;-42
2022/05/23 05:27:46;;;;;;;6.13;3.13;;;22.10;57.00;;;;;;4988664;28;20282;-45
2022/05/23 05:30:16;;;;;;;4.90;3.17;;;22.20;57.20;;;;;;4989256;28;20400;-44
2022/05/23 05:33:03;;;;;;;4.13;3.13;;;22.20;56.90;;;;;;4982849;28;20442;-47
2022/05/23 05:35:36;;;;;;;3.47;3.17;;;22.20;56.90;;;;;;4984745;28;20861;-43
2022/05/23 05:38:14;;;;;;;3.30;3.00;;;22.20;57.50;;;;;;4981281;28;20485;-44
2022/05/23 05:40:42;;;;;;;4.10;3.70;;;22.30;57.80;;;;;;4983459;28;20460;-43
2022/05/23 05:43:15;;;;;;;3.97;3.63;;;22.40;57.60;;;;;;4985880;28;20516;-46
2022/05/23 05:45:48;;;;;;;7.40;3.97;;;22.40;57.50;;;;;;4986960;28;20983;-46
2022/05/23 05:48:14;;;;;;;3.53;3.23;;;22.20;57.80;;;;;;4974159;28;20580;-45
2022/05/23 05:50:41;;;;;;;4.03;3.63;;;22.20;58.00;;;;;;4988825;28;20438;-44
2022/05/23 05:53:24;;;;;;;7.43;3.80;;;22.20;57.80;;;;;;5001244;28;20453;-47
2022/05/23 05:55:50;;;;;;;3.50;3.10;;;22.10;57.70;;;;;;4977744;28;20848;-45
2022/05/23 05:58:17;;;;;;;4.87;3.80;;;22.00;57.90;;;;;;4988071;28;20493;-43
2022/05/23 06:00:43;;;;;;;3.67;3.33;;;21.90;58.30;;;;;;4985878;28;20194;-45
2022/05/23 06:03:08;;;;;;;3.80;3.50;;;21.60;58.80;;;;;;4979422;28;20507;-49
2022/05/23 06:11:23;;;;;;;4.60;3.67;;;21.40;60.00;;;;;;4986335;28;21063;-45
2022/05/23 06:11:25;;;;;;;6.47;3.80;;;21.00;60.80;;;;;;4978292;28;20548;-44
2022/05/23 06:13:58;;;;;;;5.97;3.70;;;20.60;61.90;;;;;;4988658;28;20453;-45
2022/05/23 06:16:29;;;;;;;4.77;3.50;;;20.20;63.90;;;;;;4987219;28;20512;-45
2022/05/23 06:18:56;;;;;;;4.60;3.43;;;19.90;65.10;;;;;;4991181;28;20529;-44
2022/05/23 06:21:23;;;;;;;4.17;3.80;;;19.80;65.90;;;;;;4988209;28;20799;-46
2022/05/23 06:23:49;;;;;;;4.27;3.73;;;19.70;66.20;;;;;;4988893;28;20795;-44
2022/05/23 06:26:16;;;;;;;5.53;3.80;;;19.70;67.10;;;;;;4987711;28;20445;-45
2022/05/23 06:28:44;;;;;;;4.00;3.70;;;19.80;67.40;;;;;;4985251;28;20198;-45
2022/05/23 06:31:11;;;;;;;4.67;4.27;;;19.70;67.20;;;;;;4982671;28;20845;-46
2022/05/23 06:33:37;;;;;;;3.90;3.60;;;19.60;68.30;;;;;;4985515;28;20429;-45
2022/05/23 06:36:05;;;;;;;4.20;3.80;;;19.40;68.80;;;;;;4988585;28;20988;-46
2022/05/23 06:38:31;;;;;;;4.27;3.90;;;19.30;70.30;;;;;;4982821;28;20490;-46
2022/05/23 06:40:57;;;;;;;4.67;3.80;;;19.50;71.20;;;;;;4985103;28;20450;-45
2022/05/23 06:43:22;;;;;;;3.80;3.50;;;19.70;68.60;;;;;;4988217;28;20449;-44
2022/05/23 06:45:48;;;;;;;4.53;3.90;;;19.70;69.20;;;;;;4988551;28;20290;-44
2022/05/23 06:48:14;;;;;;;3.70;3.50;;;19.90;69.30;;;;;;4985230;28;20210;-43
2022/05/23 06:50:40;;;;;;;8.00;4.00;;;20.10;69.00;;;;;;4986133;28;22283;-43
2022/05/23 06:53:06;;;;;;;4.47;3.60;;;20.10;68.50;;;;;;4987579;28;20442;-43
2022/05/23 06:55:31;;;;;;;6.23;4.67;;;19.90;69.20;;;;;;4988119;28;20234;-44
2022/05/23 06:57:57;;;;;;;4.80;3.30;;;19.80;68.90;;;;;;4984518;28;20317;-43
2022/05/23 07:00:23;;;;;;;4.67;3.83;;;19.90;69.10;;;;;;4975507;28;20607;-43
2022/05/23 07:02:48;;;;;;;4.30;3.90;;;19.80;68.70;;;;;;4977354;28;20195;-45
2022/05/23 07:13:26;;;;;;;4.40;4.00;;;19.80;68.50;;;;;;4983688;28;20449;-44
2022/05/23 07:15:54;;;;;;;10.80;3.70;;;20.30;66.40;;;;;;4984631;28;20862;-45
2022/05/23 07:18:20;;;;;;;4.67;4.27;;;20.50;65.10;;;;;;4994261;28;20692;-43
2022/05/23 07:20:46;;;;;;;4.50;3.60;;;20.80;64.30;;;;;;4982423;28;20442;-45
2022/05/23 07:23:13;;;;;;;4.00;3.70;;;21.00;62.90;;;;;;5009232;28;20559;-45
2022/05/23 07:25:40;;;;;;;3.87;3.53;;;21.40;62.00;;;;;;4992546;28;20877;-45
2022/05/23 07:28:06;;;;;;;3.73;3.43;;;21.50;61.20;;;;;;4992806;28;20449;-44
2022/05/23 07:30:32;;;;;;;4.97;3.30;;;21.80;60.20;;;;;;4991548;28;20556;-44
2022/05/23 07:32:58;;;;;;;4.13;3.83;;;22.00;59.60;;;;;;4993040;28;20505;-43
2022/05/23 07:35:24;;;;;;;4.37;4.07;;;22.30;58.80;;;;;;4992310;28;20449;-46
2022/05/23 07:37:50;;;;;;;3.93;3.63;;;22.70;58.00;;;;;;4994687;28;20500;-43
2022/05/23 07:40:16;;;;;;;4.93;3.40;;;22.90;57.50;;;;;;4986904;28;20442;-42
2022/05/23 07:42:43;;;;;;;4.73;3.57;;;23.10;56.90;;;;;;4986130;28;20222;-45
2022/05/23 07:45:10;;;;;;;4.10;3.17;;;23.20;56.70;;;;;;4985912;28;20465;-45
2022/05/23 07:47:36;;;;;;;3.80;3.50;;;23.20;56.70;;;;;;4990107;28;20921;-44
2022/05/23 07:50:07;;;;;;;4.37;4.03;;;23.50;56.80;;;;;;4992353;28;20457;-43
2022/05/23 07:52:33;;;;;;;4.00;3.47;;;23.70;56.10;;;;;;4989509;28;20438;-44
2022/05/23 08:00:47;;;;;;;3.87;3.30;;;23.50;55.50;;;;;;4970301;28;20481;-44
2022/05/23 08:03:16;;;;;;;5.70;3.10;;;23.80;55.50;;;;;;4965528;28;20483;-44
2022/05/23 08:05:43;;;;;;;3.77;3.47;;;24.30;54.70;;;;;;4971597;28;20211;-45
2022/05/23 08:08:09;;;;;;;3.80;3.50;;;24.50;53.70;;;;;;4978221;28;20955;-45
2022/05/23 08:10:35;;;;;;;4.17;2.50;;;24.60;53.40;;;;;;4988333;28;20421;-55
2022/05/23 08:13:08;;;;;;;3.30;3.00;;;24.70;53.10;;;;;;4992992;28;20465;-44
2022/05/23 08:15:37;;;;;;;5.93;3.60;;;24.90;53.00;;;;;;4990132;28;20985;-44
2022/05/23 08:18:07;;;;;;;4.50;4.10;;;25.10;52.90;;;;;;4989902;28;20539;-45
2022/05/23 08:20:34;;;;;;;4.00;2.77;;;25.30;52.60;;;;;;4991498;28;20528;-44
2022/05/23 08:22:59;;;;;;;3.30;3.10;;;25.50;52.20;;;;;;4983939;28;20441;-44
2022/05/23 08:25:26;;;;;;;6.37;2.80;;;25.50;51.80;;;;;;4991594;28;20450;-44
2022/05/23 08:27:55;;;;;;;3.00;2.80;;;25.60;51.70;;;;;;4989083;28;20186;-47
2022/05/23 08:30:22;;;;;;;4.37;3.30;;;25.80;51.60;;;;;;4993260;28;20426;-43
2022/05/23 08:32:48;;;;;;;5.70;3.10;;;25.90;51.40;;;;;;4987923;28;20446;-45
2022/05/23 08:35:14;;;;;;;3.00;2.80;;;25.80;51.50;;;;;;4993109;28;20453;-47
2022/05/23 08:37:40;;;;;;;3.40;3.10;;;25.80;51.50;;;;;;5002415;28;20609;-43
2022/05/23 08:40:07;;;;;;;3.40;3.20;;;25.80;51.40;;;;;;4985162;28;20219;-45
2022/05/23 08:42:57;;;;;;;3.00;2.80;;;25.70;51.70;;;;;;4989476;28;20646;-44
2022/05/23 08:45:35;;;;;;;3.50;2.80;;;25.90;51.50;;;;;;4984999;28;20461;-45
2022/05/23 08:48:10;;;;;;;6.33;3.43;;;26.00;51.40;;;;;;4988741;28;20461;-43
2022/05/23 08:50:53;;;;;;;3.13;2.83;;;25.90;51.60;;;;;;4990062;28;20445;-45
2022/05/23 08:53:26;;;;;;;6.03;5.50;;;25.50;52.10;;;;;;4986684;28;20452;-44
2022/05/23 08:56:02;;;;;;;3.40;3.10;;;25.30;53.20;;;;;;4999781;28;20557;-44
2022/05/23 08:58:38;;;;;;;3.63;2.90;;;25.20;53.50;;;;;;4990383;28;20489;-43
2022/05/23 09:01:12;;;;;;;5.00;3.50;;;25.00;54.00;;;;;;4991935;28;20449;-44
2022/05/23 09:03:48;;;;;;;3.73;3.43;;;24.50;55.30;;;;;;4988429;28;20551;-43
2022/05/23 09:06:22;;;;;;;4.63;2.97;;;24.60;55.30;;;;;;4990141;28;20449;-43
2022/05/23 09:08:57;;;;;;;5.03;3.37;;;24.60;55.50;;;;;;4991439;28;20902;-44
2022/05/23 09:11:39;;;;;;;5.53;3.13;;;24.40;56.20;;;;;;4988451;28;20477;-43
2022/05/23 09:14:07;;;;;;;3.17;2.73;;;24.70;55.90;;;;;;4990890;28;20460;-43
2022/05/23 09:16:40;;;;;;;5.00;3.73;;;24.40;56.70;;;;;;4988854;28;20496;-43
2022/05/23 09:19:15;;;;;;;5.27;3.70;;;24.50;56.40;;;;;;4989893;28;20446;-44
2022/05/23 09:24:37;;;;;;;4.87;4.47;;;24.20;57.80;;;;;;4991236;28;20476;-43
2022/05/23 09:27:10;;;;;;;3.90;3.60;;;23.90;57.70;;;;;;4992323;28;20516;-43
2022/05/23 09:29:36;;;;;;;3.60;3.30;;;24.10;58.10;;;;;;4983575;28;20446;-43
2022/05/23 09:32:17;;;;;;;3.80;3.47;;;24.50;57.10;;;;;;4980831;28;20446;-43
2022/05/23 09:34:48;;;;;;;4.57;3.60;;;24.70;56.40;;;;;;4990173;28;20198;-43
2022/05/23 09:37:36;;;;;;;4.30;3.43;;;25.00;55.70;;;;;;4985162;28;20551;-43
2022/05/23 09:40:03;;;;;;;4.40;3.33;;;25.40;54.80;;;;;;4990080;28;20465;-43
2022/05/23 09:48:16;;;;;;;6.13;3.00;;;25.50;55.10;;;;;;4989125;28;21002;-44
2022/05/23 09:50:54;;;;;;;5.60;3.50;;;25.80;54.60;;;;;;4984322;28;20496;-45
2022/05/23 09:53:31;;;;;;;4.13;3.83;;;26.10;55.20;;;;;;4982478;28;20801;-43
2022/05/23 09:56:37;;;;;;;4.00;3.67;;;25.80;55.10;;;;;;4983942;28;20581;-45
2022/05/23 09:59:10;;;;;;;5.50;3.60;;;25.40;56.00;;;;;;4987268;28;20556;-43
2022/05/23 10:01:36;;;;;;;5.63;4.00;;;25.90;55.00;;;;;;4985374;28;20450;-45
2022/05/23 10:04:14;;;;;;;7.40;3.67;;;26.20;54.20;;;;;;4987660;28;20461;-43
2022/05/23 10:06:42;;;;;;;5.43;3.70;;;26.60;53.20;;;;;;4985358;28;20198;-46
2022/05/23 10:09:20;;;;;;;3.97;3.57;;;26.80;52.60;;;;;;4988399;28;20450;-45
2022/05/23 10:11:57;;;;;;;7.53;4.53;;;26.90;52.30;;;;;;4990400;28;20802;-44
2022/05/23 10:14:25;;;;;;;3.60;3.30;;;27.10;52.00;;;;;;4987541;28;20449;-44
2022/05/23 10:16:56;;;;;;;4.17;3.57;;;27.30;51.90;;;;;;4989594;28;20477;-47
2022/05/23 10:19:33;;;;;;;5.63;4.40;;;27.40;51.40;;;;;;4990156;28;20452;-46
2022/05/23 10:22:25;;;;;;;3.57;3.27;;;27.50;50.80;;;;;;4975906;28;20466;-44
2022/05/23 10:24:54;;;;;;;5.00;3.73;;;27.60;50.50;;;;;;4983364;28;20457;-48
2022/05/23 10:27:33;;;;;;;5.70;4.20;;;27.70;50.30;;;;;;4986780;28;20446;-47
2022/05/23 10:30:03;;;;;;;4.30;3.67;;;27.90;50.30;;;;;;4990009;28;20438;-48
2022/05/23 10:32:46;;;;;;;4.03;3.73;;;28.00;49.60;;;;;;4986115;28;20969;-46
2022/05/23 10:35:23;;;;;;;5.80;3.57;;;28.00;49.90;;;;;;4987377;28;21039;-45
2022/05/23 10:37:51;;;;;;;3.97;3.67;;;27.90;49.70;;;;;;4981883;28;20509;-48
2022/05/23 10:43:20;;;;;;;6.30;4.20;;;27.80;50.10;;;;;;4986730;28;20464;-48
2022/05/23 10:45:47;;;;;;;4.93;3.73;;;27.90;50.20;;;;;;4990106;28;20458;-44
2022/05/23 10:48:32;;;;;;;6.23;3.57;;;27.90;50.10;;;;;;4989457;28;20459;-46
2022/05/23 10:51:10;;;;;;;4.43;4.03;;;27.90;50.10;;;;;;4986385;28;20454;-46
2022/05/23 10:53:41;;;;;;;3.93;3.63;;;27.80;50.40;;;;;;4986047;28;20442;-48
2022/05/23 10:56:28;;;;;;;8.00;3.67;;;27.70;50.30;;;;;;4990083;28;20453;-48
2022/05/23 10:59:06;;;;;;;5.47;3.77;;;27.60;50.80;;;;;;4987880;28;20456;-44
2022/05/23 11:02:11;;;;;;;5.00;4.17;;;27.70;50.70;;;;;;4983855;28;20592;-45
2022/05/23 11:05:06;;;;;;;7.10;4.33;;;27.80;50.30;;;;;;4990447;28;20452;-44
2022/05/23 11:07:53;;;;;;;6.73;4.90;;;27.80;50.20;;;;;;4986821;28;20478;-46
2022/05/23 11:10:39;;;;;;;7.00;4.37;;;27.90;50.20;;;;;;4988056;28;20453;-44
2022/05/23 11:13:20;;;;;;;5.50;4.27;;;28.00;50.20;;;;;;4988577;28;20473;-46
2022/05/23 11:15:53;;;;;;;6.10;4.37;;;28.00;49.90;;;;;;4989155;28;20457;-44
2022/05/23 11:18:38;;;;;;;9.93;3.93;;;28.00;49.90;;;;;;4990285;28;20963;-48
2022/05/23 11:21:11;;;;;;;7.60;4.30;;;27.90;50.30;;;;;;4980062;28;20875;-47
2022/05/23 11:23:43;;;;;;;7.50;5.40;;;27.70;51.70;;;;;;4988737;28;21090;-43
2022/05/23 11:26:22;;;;;;;9.03;5.63;;;27.40;53.90;;;;;;4988944;28;20445;-46
2022/05/23 11:34:46;;;;;;;10.13;6.70;;;26.80;59.20;;;;;;4988731;28;20465;-45
2022/05/23 11:39:53;;;;;;;7.47;4.87;;;26.40;60.00;;;;;;4989875;28;20493;-43
2022/05/23 11:42:22;;;;;;;6.20;4.80;;;26.20;59.70;;;;;;4983773;28;20477;-44
2022/05/23 11:44:50;;;;;;;6.20;4.90;;;25.60;62.10;;;;;;4990085;28;20450;-43
2022/05/23 11:47:24;;;;;;;6.07;5.10;;;25.40;63.40;;;;;;4987586;28;20461;-45
2022/05/23 11:50:01;;;;;;;8.23;5.03;;;25.00;63.90;;;;;;4988836;28;21190;-43
2022/05/23 11:52:33;;;;;;;7.37;4.77;;;24.60;65.70;;;;;;4985651;28;21000;-47
2022/05/23 11:54:59;;;;;;;6.23;4.97;;;24.40;66.70;;;;;;4989659;28;20489;-43
2022/05/23 11:57:37;;;;;;;11.50;4.93;;;24.50;67.60;;;;;;4985214;28;20497;-46
2022/05/23 12:00:36;;;;;;;6.53;4.53;;;24.30;66.90;;;;;;4986548;28;21337;-43
2022/05/23 12:03:14;;;;;;;7.07;5.00;;;24.20;67.40;;;;;;4987612;28;20461;-47
2022/05/23 12:05:41;;;;;;;6.50;4.80;;;24.10;67.00;;;;;;4990764;28;20457;-44
2022/05/23 12:08:27;;;;;;;3.70;3.40;;;24.10;66.50;;;;;;4989524;28;20550;-43
2022/05/23 12:10:55;;;;;;;4.93;3.10;;;24.10;65.30;;;;;;4989332;28;20779;-44
2022/05/23 12:13:37;;;;;;;3.33;3.03;;;24.00;63.30;;;;;;4993075;28;20438;-43
2022/05/23 12:16:26;;;;;;;5.53;3.50;;;24.00;63.90;;;;;;4992510;28;20815;-43
2022/05/23 12:19:05;;;;;;;7.43;3.80;;;24.10;63.40;;;;;;4990627;28;20496;-43
2022/05/23 12:21:39;;;;;;;8.17;3.20;;;24.10;63.60;;;;;;4989398;28;20496;-43
2022/05/23 12:24:23;;;;;;;6.87;3.53;;;24.00;65.50;;;;;;4988328;28;20461;-43
2022/05/23 12:26:52;;;;;;;6.43;3.10;;;23.80;67.40;;;;;;4988088;28;20489;-43
2022/05/23 12:29:23;;;;;;;6.77;3.40;;;23.40;68.20;;;;;;4987944;28;20445;-44
2022/05/23 12:32:16;;;;;;;8.20;3.07;;;23.10;70.10;;;;;;4986672;28;20569;-43
2022/05/23 12:34:47;;;;;;;6.87;2.67;;;22.70;69.90;;;;;;4986091;28;20545;-45
2022/05/23 12:37:20;;;;;;;4.57;3.23;;;22.10;71.10;;;;;;4982586;28;20497;-44
2022/05/23 12:39:49;;;;;;;7.13;3.47;;;22.20;74.00;;;;;;4981966;28;20445;-45
2022/05/23 12:42:27;;;;;;;10.33;3.70;;;22.50;73.50;;;;;;4990832;28;20451;-44
2022/05/23 12:45:00;;;;;;;4.80;3.27;;;22.70;71.30;;;;;;4989448;28;20453;-47
2022/05/23 12:47:37;;;;;;;3.83;2.80;;;22.90;70.80;;;;;;4987550;28;20442;-46
2022/05/23 12:50:34;;;;;;;6.10;3.20;;;23.10;70.00;;;;;;4980935;28;20460;-48
2022/05/23 12:53:27;;;;;;;6.90;3.00;;;23.00;70.40;;;;;;4987516;28;20454;-45
2022/05/23 12:56:00;;;;;;;3.37;2.70;;;23.30;70.20;;;;;;4985811;28;20843;-46
2022/05/23 12:58:34;;;;;;;6.20;3.70;;;23.50;69.20;;;;;;4976908;28;20498;-45
2022/05/23 13:01:04;;;;;;;5.73;3.10;;;23.70;69.10;;;;;;4987413;28;20482;-46
2022/05/23 13:03:33;;;;;;;7.60;2.47;;;23.90;68.60;;;;;;4990748;28;21003;-46
2022/05/23 13:06:09;;;;;;;7.73;3.73;;;23.60;69.60;;;;;;4991293;28;20446;-45
2022/05/23 13:08:41;;;;;;;5.97;3.27;;;23.60;68.60;;;;;;4989627;28;20453;-45
2022/05/23 13:11:14;;;;;;;5.07;3.40;;;23.90;68.90;;;;;;4987236;28;20476;-45
2022/05/23 13:13:41;;;;;;;5.13;3.40;;;23.90;68.10;;;;;;4982670;28;20434;-46
2022/05/23 13:16:20;;;;;;;5.27;3.20;;;24.10;68.20;;;;;;4987944;28;21054;-45
2022/05/23 13:24:48;;;;;;;6.27;4.00;;;24.80;68.10;;;;;;4985023;28;20453;-45
2022/05/23 13:27:05;;;;;;;6.83;3.00;;;25.10;67.90;;;;;;4988220;28;20462;-46
2022/05/23 13:29:32;;;;;;;7.13;3.00;;;25.10;63.70;;;;;;4985950;28;20449;-46
2022/05/23 13:32:04;;;;;;;13.90;2.93;;;25.20;63.90;;;;;;4987271;28;20461;-45
2022/05/23 13:34:34;;;;;;;6.13;3.00;;;25.30;64.10;;;;;;4986339;28;20438;-46
2022/05/23 13:37:01;;;;;;;5.63;3.17;;;25.30;63.70;;;;;;4983557;28;20466;-45
2022/05/23 13:39:27;;;;;;;5.87;3.10;;;25.20;63.90;;;;;;4984589;28;21284;-47
2022/05/23 13:41:52;;;;;;;5.30;3.00;;;25.40;64.10;;;;;;4987550;28;20449;-44
2022/05/23 13:44:27;;;;;;;6.87;2.73;;;25.60;64.50;;;;;;4987784;28;20654;-43
2022/05/23 13:47:00;;;;;;;5.03;2.77;;;25.60;63.90;;;;;;4986739;28;20201;-46
2022/05/23 13:49:36;;;;;;;3.93;3.00;;;25.60;64.50;;;;;;4986328;28;20452;-47
2022/05/23 13:52:11;;;;;;;4.60;2.70;;;25.80;63.50;;;;;;4984891;28;20581;-44
2022/05/23 13:54:47;;;;;;;4.73;2.67;;;26.00;62.30;;;;;;4986980;28;20595;-45
2022/05/23 13:57:21;;;;;;;11.00;2.90;;;26.10;59.80;;;;;;4989022;28;20485;-44
2022/05/23 14:00:05;;;;;;;8.63;2.40;;;26.20;59.30;;;;;;4987270;28;20504;-45
2022/05/23 14:02:40;;;;;;;3.70;2.70;;;26.30;58.40;;;;;;4989062;28;20507;-43
2022/05/23 14:05:07;;;;;;;5.20;3.00;;;26.30;58.90;;;;;;4985480;28;20429;-44
2022/05/23 14:07:39;;;;;;;5.13;2.30;;;26.70;59.90;;;;;;4986055;28;20508;-43